Terminal Aerodrome Forecast
Issued by NWS

Home | Current Version | Previous Version | Text Only | Print | Product List | Glossary Off
Versions: 1 2 3 4 5 6 7 8 9 10 11 12 13 14 15 16 17 18 19 20 21 22 23

000
FTUS43 KDLH 240608 AAA
TAFBRD
TAF AMD
KBRD 240608Z 2406/2506 00000KT 3SM BR FEW008
      TEMPO 2406/2408 1SM BR SCT005
     FM240800 00000KT 1SM BR BKN004
      TEMPO 2408/2411 1/2SM FG VV002
     FM241300 14004KT P6SM FEW005
     FM241700 15008KT P6SM SCT050=

USA.gov is the U.S. government's official web portal to all federal, state and local government web resources and services.